Time;durP1;ratioP1;P1;durP2;ratioP2;P2;SDS_P1;SDS_P2;PMS_P1;PMS_P2;Temp;Humidity;BMP_temperature;BMP_pressure;BME280_temperature;BME280_humidity;BME280_pressure;Samples;Min_cycle;Max_cycle;Signal;HPM_P1;HPM_P2
2021/10/10 00:01:53;;;;;;;28.10;17.13;;;15.30;75.10;;;;;;5065673;28;20021;-72
2021/10/10 00:04:18;;;;;;;26.08;16.92;;;15.30;74.50;;;;;;5071012;28;20036;-70
2021/10/10 00:06:44;;;;;;;26.05;17.02;;;15.20;73.90;;;;;;5075100;28;20100;-71
2021/10/10 00:09:10;;;;;;;25.42;16.92;;;15.30;74.10;;;;;;5075884;28;20035;-70
2021/10/10 00:11:35;;;;;;;24.58;17.08;;;15.20;74.10;;;;;;5074888;28;20450;-70
2021/10/10 00:14:01;;;;;;;25.10;16.58;;;15.10;74.10;;;;;;5074800;28;20036;-71
2021/10/10 00:16:27;;;;;;;26.45;16.38;;;15.00;74.50;;;;;;5074461;28;20031;-71
2021/10/10 00:18:52;;;;;;;27.33;17.83;;;15.00;74.60;;;;;;5074919;28;20035;-71
2021/10/10 00:21:18;;;;;;;25.73;17.13;;;14.90;74.90;;;;;;5074974;28;20082;-71
2021/10/10 00:23:44;;;;;;;28.67;18.13;;;14.90;75.20;;;;;;5074974;28;20059;-70
2021/10/10 00:26:09;;;;;;;28.58;17.02;;;14.90;75.50;;;;;;5074695;28;20469;-71
2021/10/10 00:28:35;;;;;;;27.08;17.50;;;15.00;75.90;;;;;;5074347;28;20488;-69
2021/10/10 00:31:01;;;;;;;29.88;18.85;;;15.10;75.00;;;;;;5074372;28;20033;-71
2021/10/10 00:33:26;;;;;;;25.55;17.35;;;15.00;74.90;;;;;;5074578;28;20031;-70
2021/10/10 00:35:52;;;;;;;26.27;18.33;;;14.90;75.90;;;;;;5074946;28;20504;-70
2021/10/10 00:38:18;;;;;;;25.55;16.80;;;14.90;75.20;;;;;;5074154;28;20024;-72
2021/10/10 00:40:44;;;;;;;25.77;17.45;;;14.90;75.10;;;;;;5070565;28;20163;-70
2021/10/10 00:43:10;;;;;;;28.38;17.98;;;14.90;75.30;;;;;;5062567;28;20029;-70
2021/10/10 00:45:36;;;;;;;27.38;17.13;;;14.90;75.80;;;;;;5058247;28;20056;-71
2021/10/10 00:48:02;;;;;;;26.77;17.75;;;14.90;76.00;;;;;;5075009;28;20396;-71
2021/10/10 00:50:29;;;;;;;28.73;18.38;;;14.90;75.50;;;;;;5074044;28;20060;-69
2021/10/10 00:52:55;;;;;;;29.67;17.90;;;14.90;75.60;;;;;;5074290;28;20056;-71
2021/10/10 00:55:22;;;;;;;27.77;18.58;;;14.90;75.30;;;;;;5074015;28;20110;-70
2021/10/10 00:57:50;;;;;;;25.17;17.90;;;14.80;75.20;;;;;;5074068;28;20031;-70
2021/10/10 01:00:17;;;;;;;28.80;17.58;;;14.80;75.50;;;;;;5074131;28;20078;-71
2021/10/10 01:02:44;;;;;;;26.88;17.48;;;14.80;75.90;;;;;;5062122;28;20115;-70
2021/10/10 01:05:13;;;;;;;27.48;17.65;;;14.80;75.40;;;;;;5070060;28;20108;-70
2021/10/10 01:07:39;;;;;;;26.70;16.80;;;14.80;75.20;;;;;;5073863;28;20084;-71
2021/10/10 01:10:07;;;;;;;26.98;17.08;;;14.70;75.40;;;;;;5073960;28;20044;-71
2021/10/10 01:12:33;;;;;;;26.92;17.95;;;14.60;76.00;;;;;;5073888;28;20056;-70
2021/10/10 01:15:01;;;;;;;27.50;17.90;;;14.50;76.30;;;;;;5073660;28;20052;-71
2021/10/10 01:17:27;;;;;;;29.83;17.73;;;14.50;76.00;;;;;;5073618;28;20469;-72
2021/10/10 01:19:54;;;;;;;23.45;16.42;;;14.50;76.40;;;;;;5068733;28;20025;-70
2021/10/10 01:22:21;;;;;;;27.00;17.27;;;14.60;76.70;;;;;;5062836;28;20078;-70
2021/10/10 01:24:47;;;;;;;28.33;17.67;;;14.60;77.60;;;;;;5073745;28;20024;-70
2021/10/10 01:27:14;;;;;;;26.98;17.73;;;14.60;76.70;;;;;;5074479;28;20029;-70
2021/10/10 01:29:40;;;;;;;26.55;17.00;;;14.50;76.00;;;;;;5073186;28;20052;-71
2021/10/10 01:32:06;;;;;;;24.67;17.35;;;14.50;76.30;;;;;;5073435;28;20032;-71
2021/10/10 01:34:32;;;;;;;25.33;16.58;;;14.40;76.40;;;;;;5073425;28;20550;-71
2021/10/10 01:36:59;;;;;;;24.13;16.25;;;14.40;76.60;;;;;;5073602;28;20060;-70
2021/10/10 01:39:24;;;;;;;26.00;16.88;;;14.50;76.90;;;;;;5073385;28;20040;-70
2021/10/10 01:41:50;;;;;;;25.45;17.05;;;14.50;76.60;;;;;;5073881;28;20086;-70
2021/10/10 01:44:17;;;;;;;24.35;16.65;;;14.50;76.70;;;;;;5072879;28;20493;-69
2021/10/10 01:46:43;;;;;;;26.65;17.27;;;14.60;76.10;;;;;;5073195;28;20492;-70
2021/10/10 01:49:10;;;;;;;24.75;17.33;;;14.60;77.20;;;;;;5073119;28;20033;-71
2021/10/10 01:51:37;;;;;;;24.00;15.95;;;14.60;76.40;;;;;;5073241;28;20025;-71
2021/10/10 01:54:03;;;;;;;25.92;17.55;;;14.60;76.50;;;;;;5073810;28;20503;-72
2021/10/10 01:56:29;;;;;;;25.83;16.85;;;14.50;76.70;;;;;;5072937;28;20053;-71
2021/10/10 01:58:55;;;;;;;26.42;17.70;;;14.50;76.50;;;;;;5067035;28;20109;-72
2021/10/10 02:01:21;;;;;;;24.13;16.80;;;14.40;77.00;;;;;;5062248;28;20162;-71
2021/10/10 02:03:47;;;;;;;23.75;16.27;;;14.40;76.50;;;;;;5072973;28;20038;-70
2021/10/10 02:06:12;;;;;;;26.85;17.70;;;14.40;76.40;;;;;;5073457;28;20056;-70
2021/10/10 02:08:38;;;;;;;25.50;16.55;;;14.40;77.00;;;;;;5061461;28;20021;-71
2021/10/10 02:11:04;;;;;;;24.80;17.05;;;14.40;77.00;;;;;;5068178;28;20040;-70
2021/10/10 02:13:29;;;;;;;23.55;16.15;;;14.40;76.50;;;;;;5072386;28;20013;-71
2021/10/10 02:15:57;;;;;;;26.25;17.08;;;14.50;77.30;;;;;;5072804;28;20111;-70
2021/10/10 02:18:22;;;;;;;28.08;17.10;;;14.60;77.10;;;;;;5072867;28;20036;-71
2021/10/10 02:20:48;;;;;;;25.83;16.88;;;14.60;77.00;;;;;;5073064;28;20033;-71
2021/10/10 02:23:14;;;;;;;22.23;15.75;;;14.60;76.90;;;;;;5072331;28;20110;-71
2021/10/10 02:25:40;;;;;;;24.75;16.38;;;14.60;77.00;;;;;;5071663;28;20485;-71
2021/10/10 02:28:05;;;;;;;23.15;15.60;;;14.60;76.80;;;;;;5072017;28;20085;-71
2021/10/10 02:30:32;;;;;;;23.90;15.75;;;14.60;77.30;;;;;;5072394;28;20094;-71
2021/10/10 02:32:57;;;;;;;23.55;15.40;;;14.60;76.80;;;;;;5073097;28;20102;-71
2021/10/10 02:35:23;;;;;;;22.02;15.75;;;14.50;77.20;;;;;;5071949;28;20485;-71
2021/10/10 02:37:49;;;;;;;23.27;15.73;;;14.60;77.30;;;;;;5072236;28;20539;-70
2021/10/10 02:40:15;;;;;;;25.63;15.63;;;14.60;77.50;;;;;;5072009;28;20044;-71
2021/10/10 02:42:41;;;;;;;24.42;15.32;;;14.60;76.90;;;;;;5055917;28;20078;-70
2021/10/10 02:45:07;;;;;;;25.08;15.85;;;14.60;77.20;;;;;;5072641;28;20111;-71
2021/10/10 02:47:33;;;;;;;23.85;15.65;;;14.60;77.30;;;;;;5071994;28;20028;-70
2021/10/10 02:49:58;;;;;;;21.55;13.80;;;14.70;77.70;;;;;;5071832;28;20133;-71
2021/10/10 02:52:24;;;;;;;24.35;16.35;;;14.60;77.00;;;;;;5072091;28;20549;-70
2021/10/10 02:54:50;;;;;;;23.58;15.00;;;14.50;77.50;;;;;;5072168;28;20024;-71
2021/10/10 02:57:17;;;;;;;22.65;15.05;;;14.50;77.40;;;;;;5071796;28;20028;-72
2021/10/10 02:59:43;;;;;;;22.52;15.00;;;14.50;78.00;;;;;;5072490;28;20029;-71
2021/10/10 03:02:08;;;;;;;23.30;15.43;;;14.50;78.80;;;;;;5071587;28;20511;-71
2021/10/10 03:04:34;;;;;;;23.52;15.63;;;14.50;78.10;;;;;;5071711;28;20036;-71
2021/10/10 03:07:00;;;;;;;22.80;14.57;;;14.50;78.40;;;;;;5071908;28;20472;-70
2021/10/10 03:09:25;;;;;;;24.17;15.45;;;14.50;78.80;;;;;;5071693;28;20044;-70
2021/10/10 03:11:51;;;;;;;23.83;16.08;;;14.60;79.20;;;;;;5071912;28;20028;-72
2021/10/10 03:14:16;;;;;;;23.05;14.88;;;14.60;78.50;;;;;;5071649;28;20025;-71
2021/10/10 03:16:42;;;;;;;22.40;15.07;;;14.70;78.70;;;;;;5067958;28;20104;-71
2021/10/10 03:19:08;;;;;;;22.83;14.63;;;14.70;78.20;;;;;;5059313;28;20093;-69
2021/10/10 03:21:33;;;;;;;23.33;15.23;;;14.70;78.70;;;;;;5071709;28;20044;-69
2021/10/10 03:23:59;;;;;;;24.17;15.77;;;14.60;78.50;;;;;;5072110;28;20078;-70
2021/10/10 03:26:25;;;;;;;24.48;16.50;;;14.60;78.70;;;;;;5071057;28;20036;-69
2021/10/10 03:28:51;;;;;;;24.23;14.93;;;14.50;79.10;;;;;;5071387;28;20032;-72
2021/10/10 03:31:16;;;;;;;24.08;15.82;;;14.50;78.80;;;;;;5071509;28;20051;-71
2021/10/10 03:33:42;;;;;;;23.30;14.95;;;14.40;80.00;;;;;;5071759;28;20511;-71
2021/10/10 03:36:08;;;;;;;23.50;15.88;;;14.40;78.70;;;;;;5072177;28;20032;-70
2021/10/10 03:38:34;;;;;;;22.92;15.68;;;14.30;78.60;;;;;;5070843;28;20539;-70
2021/10/10 03:40:59;;;;;;;21.48;14.55;;;14.30;79.60;;;;;;5071047;28;20056;-70
2021/10/10 03:43:25;;;;;;;20.95;14.02;;;14.30;79.20;;;;;;5071338;28;20024;-70
2021/10/10 03:45:51;;;;;;;22.40;14.68;;;14.30;79.50;;;;;;5071251;28;20055;-70
2021/10/10 03:48:17;;;;;;;21.25;13.75;;;14.30;79.10;;;;;;5071478;28;20060;-71
2021/10/10 03:50:42;;;;;;;19.10;14.27;;;14.30;79.60;;;;;;5071516;28;20492;-71
2021/10/10 03:53:08;;;;;;;19.17;14.10;;;14.20;79.30;;;;;;5071343;28;20060;-70
2021/10/10 03:55:35;;;;;;;20.73;14.38;;;14.20;79.40;;;;;;5068360;28;20024;-70
2021/10/10 03:58:01;;;;;;;18.48;12.70;;;14.20;79.90;;;;;;5057700;28;20409;-71
2021/10/10 04:00:28;;;;;;;17.83;12.98;;;14.10;79.10;;;;;;5071459;28;20021;-70
2021/10/10 04:02:54;;;;;;;18.02;12.55;;;14.10;79.70;;;;;;5055072;28;20032;-72
2021/10/10 04:07:45;;;;;;;17.88;12.18;;;14.10;80.00;;;;;;5070965;28;20021;-70
2021/10/10 04:10:11;;;;;;;16.65;12.55;;;14.10;79.70;;;;;;5068703;28;20120;-71
2021/10/10 04:12:37;;;;;;;18.23;13.35;;;14.10;80.00;;;;;;5070640;28;20025;-70
2021/10/10 04:15:03;;;;;;;19.40;13.00;;;14.10;80.00;;;;;;5071070;28;20029;-70
2021/10/10 04:17:29;;;;;;;17.15;11.95;;;14.10;79.80;;;;;;5070490;28;20020;-72
2021/10/10 04:19:54;;;;;;;16.98;12.25;;;14.00;79.80;;;;;;5070878;28;20028;-72
2021/10/10 04:22:20;;;;;;;16.35;11.57;;;13.90;80.10;;;;;;5070778;28;20099;-71
2021/10/10 04:24:45;;;;;;;17.95;12.88;;;14.00;80.70;;;;;;5070643;28;20036;-71
2021/10/10 04:27:11;;;;;;;16.30;12.18;;;14.10;80.30;;;;;;5071699;28;20074;-71
2021/10/10 04:29:37;;;;;;;13.43;10.73;;;14.10;79.40;;;;;;5070675;28;20044;-71
2021/10/10 04:32:02;;;;;;;16.48;11.48;;;14.00;80.40;;;;;;5070724;28;20035;-70
2021/10/10 04:34:29;;;;;;;14.77;11.43;;;14.10;80.30;;;;;;5068936;28;20040;-70
2021/10/10 04:36:54;;;;;;;16.40;11.88;;;14.10;80.00;;;;;;5056693;28;20036;-72
2021/10/10 04:39:20;;;;;;;17.48;12.40;;;14.10;80.00;;;;;;5070539;28;20052;-72
2021/10/10 04:41:46;;;;;;;17.17;12.43;;;14.00;80.30;;;;;;5071263;28;20075;-71
2021/10/10 04:44:11;;;;;;;16.83;12.15;;;14.00;80.30;;;;;;5070752;28;20031;-70
2021/10/10 04:46:37;;;;;;;16.95;12.73;;;14.10;80.60;;;;;;5070678;28;20028;-71
2021/10/10 04:49:02;;;;;;;19.92;13.55;;;14.20;80.20;;;;;;5071704;28;20074;-72
2021/10/10 04:51:28;;;;;;;19.17;13.05;;;14.20;80.20;;;;;;5074580;28;20436;-72
2021/10/10 04:53:55;;;;;;;16.25;12.43;;;14.10;79.50;;;;;;5074596;28;20086;-70
2021/10/10 04:56:21;;;;;;;15.23;11.25;;;13.90;79.80;;;;;;5074124;28;20028;-71
2021/10/10 04:58:46;;;;;;;16.30;11.80;;;13.90;81.10;;;;;;5074015;28;20397;-72
2021/10/10 05:01:12;;;;;;;16.45;11.90;;;13.80;80.50;;;;;;5074131;28;20024;-71
2021/10/10 05:03:38;;;;;;;16.48;12.10;;;13.80;80.80;;;;;;5074205;28;20021;-71
2021/10/10 05:06:03;;;;;;;16.75;12.23;;;13.90;81.20;;;;;;5074717;28;20025;-71
2021/10/10 05:08:29;;;;;;;15.43;11.70;;;13.90;81.00;;;;;;5073418;28;20029;-70
2021/10/10 05:10:55;;;;;;;15.27;11.50;;;13.80;79.50;;;;;;5073927;28;20037;-71
2021/10/10 05:13:20;;;;;;;14.85;11.23;;;13.70;81.30;;;;;;5073101;28;20044;-72
2021/10/10 05:15:46;;;;;;;15.32;11.20;;;13.80;80.40;;;;;;5058709;28;20031;-71
2021/10/10 05:18:12;;;;;;;14.73;11.52;;;13.80;80.40;;;;;;5074778;28;20473;-71
2021/10/10 05:20:37;;;;;;;14.18;11.48;;;13.90;80.60;;;;;;5073658;28;20021;-71
2021/10/10 05:23:03;;;;;;;14.50;10.48;;;13.90;80.80;;;;;;5073663;28;20062;-71
2021/10/10 05:25:29;;;;;;;13.65;10.48;;;13.90;80.20;;;;;;5073592;28;20017;-70
2021/10/10 05:27:54;;;;;;;11.88;10.15;;;13.90;79.80;;;;;;5056104;28;20063;-71
2021/10/10 05:30:20;;;;;;;12.25;9.95;;;13.70;79.00;;;;;;5073668;28;20040;-70
2021/10/10 05:32:46;;;;;;;13.18;10.15;;;13.50;79.60;;;;;;5073999;28;20060;-71
2021/10/10 05:35:11;;;;;;;11.98;8.48;;;13.60;80.40;;;;;;5073103;28;20550;-69
2021/10/10 05:37:37;;;;;;;11.80;8.95;;;13.60;80.00;;;;;;5073472;28;20029;-71
2021/10/10 05:40:03;;;;;;;10.43;8.70;;;13.40;79.40;;;;;;5073279;28;20057;-70
2021/10/10 05:42:32;;;;;;;11.40;9.20;;;13.40;80.50;;;;;;5073374;28;20051;-70
2021/10/10 05:44:59;;;;;;;10.68;8.68;;;13.30;80.00;;;;;;5073918;28;20033;-71
2021/10/10 05:47:25;;;;;;;12.30;9.73;;;13.40;81.50;;;;;;5073234;28;20067;-70
2021/10/10 05:49:50;;;;;;;12.00;9.68;;;13.50;81.00;;;;;;5072661;28;20130;-70
2021/10/10 05:52:22;;;;;;;11.68;9.52;;;13.60;80.10;;;;;;5073101;28;20020;-71
2021/10/10 05:54:48;;;;;;;13.27;10.10;;;13.60;80.00;;;;;;5058096;28;20028;-71
2021/10/10 05:57:16;;;;;;;11.00;9.13;;;13.50;80.00;;;;;;5073418;28;20029;-71
2021/10/10 05:59:42;;;;;;;10.52;8.70;;;13.50;79.90;;;;;;5061168;28;20025;-71
2021/10/10 06:02:07;;;;;;;11.10;8.40;;;13.50;80.30;;;;;;5068799;28;20695;-70
2021/10/10 06:04:33;;;;;;;12.98;9.82;;;13.50;80.40;;;;;;5072631;28;20021;-72
2021/10/10 06:06:58;;;;;;;11.45;9.10;;;13.50;80.20;;;;;;5072934;28;20040;-72
2021/10/10 06:09:24;;;;;;;12.55;9.05;;;13.40;80.60;;;;;;5072874;28;20474;-72
2021/10/10 06:11:50;;;;;;;13.27;9.60;;;13.50;80.80;;;;;;5073425;28;20081;-71
2021/10/10 06:14:16;;;;;;;13.18;9.43;;;13.50;80.70;;;;;;5072791;28;20032;-70
2021/10/10 06:16:42;;;;;;;12.13;9.32;;;13.60;80.40;;;;;;5072847;28;20034;-70
2021/10/10 06:19:07;;;;;;;11.88;8.65;;;13.50;80.20;;;;;;5072427;28;20473;-70
2021/10/10 06:21:33;;;;;;;11.85;9.35;;;13.50;80.20;;;;;;5072840;28;20121;-71
2021/10/10 06:23:59;;;;;;;12.50;9.25;;;13.50;80.20;;;;;;5073235;28;20125;-71
2021/10/10 06:26:25;;;;;;;11.77;9.18;;;13.50;80.30;;;;;;5062741;28;20036;-68
2021/10/10 06:28:51;;;;;;;15.93;9.02;;;13.50;80.20;;;;;;5065862;28;20107;-71
2021/10/10 06:31:16;;;;;;;13.00;9.13;;;13.50;80.40;;;;;;5072302;28;20523;-71
2021/10/10 06:33:42;;;;;;;13.98;10.25;;;13.60;81.00;;;;;;5056000;28;20111;-69
2021/10/10 06:36:07;;;;;;;12.38;9.38;;;13.60;80.50;;;;;;5072475;28;20104;-70
2021/10/10 06:38:34;;;;;;;13.45;10.35;;;13.60;80.70;;;;;;5071653;28;20033;-70
2021/10/10 06:41:00;;;;;;;13.73;10.23;;;13.60;80.60;;;;;;5071916;28;20429;-70
2021/10/10 06:43:25;;;;;;;13.38;10.02;;;13.60;80.50;;;;;;5071657;28;20127;-71
2021/10/10 06:45:51;;;;;;;14.98;9.65;;;13.70;80.30;;;;;;5071573;28;20447;-70
2021/10/10 06:48:17;;;;;;;12.70;9.60;;;13.70;80.40;;;;;;5071815;28;20035;-70
2021/10/10 06:50:42;;;;;;;14.05;9.30;;;13.60;80.40;;;;;;5071818;28;20421;-72
2021/10/10 06:53:08;;;;;;;12.77;9.40;;;13.70;80.50;;;;;;5071518;28;20038;-70
2021/10/10 06:55:34;;;;;;;12.15;9.38;;;13.60;80.50;;;;;;5070833;28;20025;-70
2021/10/10 06:57:59;;;;;;;13.48;9.20;;;13.70;80.70;;;;;;5071001;28;20560;-70
2021/10/10 07:00:25;;;;;;;13.20;9.68;;;13.80;80.40;;;;;;5071308;28;20485;-71
2021/10/10 07:02:50;;;;;;;12.95;9.95;;;13.80;80.50;;;;;;5071055;28;20152;-69
2021/10/10 07:05:18;;;;;;;12.15;9.23;;;13.80;80.30;;;;;;5071623;28;20081;-70
2021/10/10 07:07:44;;;;;;;13.40;9.98;;;13.80;80.10;;;;;;5070922;28;20520;-70
2021/10/10 07:10:10;;;;;;;13.10;9.77;;;13.80;80.70;;;;;;5071095;28;20050;-71
2021/10/10 07:12:36;;;;;;;14.70;9.88;;;13.80;80.20;;;;;;5070700;28;20059;-71
2021/10/10 07:15:03;;;;;;;13.45;9.80;;;13.80;80.30;;;;;;5071501;28;20484;-71
2021/10/10 07:17:29;;;;;;;14.13;9.82;;;13.80;80.20;;;;;;5070219;28;20024;-70
2021/10/10 07:22:31;;;;;;;14.00;10.23;;;13.80;80.10;;;;;;5070784;28;20024;-70
2021/10/10 07:25:04;;;;;;;13.38;10.20;;;13.80;80.10;;;;;;5070753;28;20539;-70
2021/10/10 07:27:32;;;;;;;15.20;10.25;;;13.80;80.30;;;;;;5071018;28;20009;-70
2021/10/10 07:29:57;;;;;;;13.65;10.35;;;13.90;80.40;;;;;;5071686;28;20080;-71
2021/10/10 07:32:23;;;;;;;15.18;10.55;;;13.90;80.80;;;;;;5070426;28;20055;-71
2021/10/10 07:34:49;;;;;;;14.98;10.52;;;14.00;80.80;;;;;;5070768;28;20473;-72
2021/10/10 07:37:15;;;;;;;16.02;11.20;;;14.00;81.30;;;;;;5070827;28;20126;-70
2021/10/10 07:39:40;;;;;;;16.85;11.40;;;14.00;80.20;;;;;;5053047;28;20536;-70
2021/10/10 07:42:06;;;;;;;14.32;10.43;;;13.90;79.90;;;;;;5071342;28;20113;-71
2021/10/10 07:44:32;;;;;;;14.13;10.77;;;14.00;80.50;;;;;;5070634;28;20496;-71
2021/10/10 07:47:14;;;;;;;14.38;10.30;;;14.10;81.00;;;;;;5070489;28;20021;-70
2021/10/10 07:49:39;;;;;;;14.43;10.77;;;14.20;80.40;;;;;;5068912;28;20028;-71
2021/10/10 07:52:05;;;;;;;14.93;11.13;;;14.30;79.80;;;;;;5070791;28;20033;-71
2021/10/10 07:54:31;;;;;;;14.57;10.68;;;14.20;79.90;;;;;;5070645;28;20096;-70
2021/10/10 07:56:56;;;;;;;16.58;11.25;;;14.20;79.70;;;;;;5071205;28;20041;-72
2021/10/10 07:59:22;;;;;;;17.02;11.13;;;14.20;79.60;;;;;;5070436;28;20100;-72
2021/10/10 08:01:48;;;;;;;13.90;10.32;;;14.30;80.00;;;;;;5070374;28;20024;-71
2021/10/10 08:04:13;;;;;;;14.07;11.02;;;14.40;80.40;;;;;;5070487;28;20029;-71
2021/10/10 08:06:39;;;;;;;12.98;9.30;;;14.40;80.10;;;;;;5070994;28;20024;-71
2021/10/10 08:09:04;;;;;;;13.48;10.13;;;14.40;79.80;;;;;;5071656;28;20024;-70
2021/10/10 08:11:30;;;;;;;15.75;11.05;;;14.50;79.80;;;;;;5052758;28;20059;-70
2021/10/10 08:13:55;;;;;;;15.32;10.30;;;14.50;80.60;;;;;;5070460;28;20035;-71
2021/10/10 08:16:21;;;;;;;14.93;10.65;;;14.60;79.50;;;;;;5070697;28;20083;-70
2021/10/10 08:18:47;;;;;;;16.77;11.65;;;14.70;80.00;;;;;;5070899;28;20056;-69
2021/10/10 08:21:12;;;;;;;13.73;10.60;;;14.80;79.70;;;;;;5071451;28;20032;-70
2021/10/10 08:23:38;;;;;;;14.80;10.40;;;15.00;79.80;;;;;;5070949;28;20048;-71
2021/10/10 08:26:03;;;;;;;15.57;11.38;;;15.10;79.40;;;;;;5061343;28;20036;-72
2021/10/10 08:28:29;;;;;;;14.18;10.95;;;15.10;78.80;;;;;;5070570;28;20031;-70
2021/10/10 08:30:55;;;;;;;13.55;10.82;;;15.20;78.90;;;;;;5074264;28;20044;-70
2021/10/10 08:33:22;;;;;;;13.77;10.63;;;15.10;77.90;;;;;;5070407;28;20048;-70
2021/10/10 08:35:48;;;;;;;14.48;10.63;;;15.10;78.10;;;;;;5074416;28;20036;-69
2021/10/10 08:38:14;;;;;;;15.93;11.07;;;15.10;78.00;;;;;;5074082;28;20085;-70
2021/10/10 08:40:40;;;;;;;13.52;10.63;;;15.20;78.60;;;;;;5074222;28;20485;-72
2021/10/10 08:43:08;;;;;;;13.77;10.75;;;15.60;79.40;;;;;;5066151;28;20026;-70
2021/10/10 08:45:34;;;;;;;12.25;9.80;;;16.10;79.30;;;;;;5073684;28;20488;-71
2021/10/10 08:48:00;;;;;;;13.55;10.63;;;16.70;78.80;;;;;;5074756;28;20017;-71
2021/10/10 08:50:28;;;;;;;11.90;10.38;;;17.30;77.10;;;;;;5073291;28;20051;-69
2021/10/10 08:52:57;;;;;;;11.55;9.95;;;17.70;75.40;;;;;;5074121;28;20025;-71
2021/10/10 08:55:23;;;;;;;10.95;9.85;;;18.10;73.60;;;;;;5072782;28;20476;-71
2021/10/10 08:57:50;;;;;;;11.05;9.95;;;18.40;72.70;;;;;;5072783;28;20074;-71
2021/10/10 09:00:18;;;;;;;10.73;9.35;;;18.60;71.60;;;;;;5074157;28;20507;-71
2021/10/10 09:02:47;;;;;;;10.40;9.32;;;19.00;70.80;;;;;;5061785;28;20017;-71
2021/10/10 09:05:13;;;;;;;11.45;10.20;;;19.10;68.70;;;;;;5070334;28;20120;-71
2021/10/10 09:07:39;;;;;;;10.63;9.52;;;19.30;68.40;;;;;;5070760;28;20067;-72
2021/10/10 09:10:41;;;;;;;11.20;10.02;;;19.40;68.10;;;;;;5042960;28;20497;-71
2021/10/10 09:13:10;;;;;;;11.23;9.65;;;19.60;69.10;;;;;;4999084;28;20057;-70
2021/10/10 09:15:41;;;;;;;10.85;9.77;;;19.80;66.90;;;;;;4995885;28;20065;-70
2021/10/10 09:18:09;;;;;;;11.32;9.70;;;19.90;66.40;;;;;;4997462;28;20514;-72
2021/10/10 09:20:43;;;;;;;12.05;10.85;;;20.10;66.40;;;;;;5005267;28;20124;-70
2021/10/10 09:23:29;;;;;;;10.80;9.80;;;20.30;66.10;;;;;;5009515;28;20085;-69
2021/10/10 09:26:00;;;;;;;11.80;10.60;;;20.60;65.10;;;;;;5006171;28;20026;-71
2021/10/10 09:28:29;;;;;;;10.40;9.40;;;20.90;65.50;;;;;;4999841;28;20038;-69
2021/10/10 09:31:00;;;;;;;10.77;9.68;;;21.00;63.60;;;;;;4997539;28;20049;-71
2021/10/10 09:33:50;;;;;;;11.68;10.35;;;21.10;64.80;;;;;;4995662;28;20046;-70
2021/10/10 09:36:26;;;;;;;11.55;10.35;;;21.30;63.80;;;;;;4995693;28;20025;-71
2021/10/10 09:44:24;;;;;;;12.48;11.18;;;21.60;61.60;;;;;;4999745;28;20057;-69
2021/10/10 09:46:51;;;;;;;10.85;9.75;;;21.60;62.70;;;;;;5025706;28;20048;-71
2021/10/10 09:49:33;;;;;;;12.18;10.90;;;21.70;61.80;;;;;;5072766;28;20055;-71
2021/10/10 09:52:08;;;;;;;11.52;10.35;;;21.80;61.70;;;;;;5059261;28;20029;-71
2021/10/10 09:54:50;;;;;;;12.40;11.20;;;21.90;63.10;;;;;;5072916;28;20037;-71
2021/10/10 09:57:16;;;;;;;12.27;10.98;;;22.00;63.80;;;;;;5068907;28;20059;-69
2021/10/10 09:59:42;;;;;;;12.68;11.48;;;22.10;61.10;;;;;;5073190;28;20068;-70
2021/10/10 10:02:08;;;;;;;12.98;11.68;;;22.10;61.70;;;;;;5072831;28;20473;-71
2021/10/10 10:04:46;;;;;;;13.38;12.07;;;22.30;61.20;;;;;;5072594;28;20032;-70
2021/10/10 10:07:14;;;;;;;12.57;11.35;;;22.20;61.90;;;;;;5071719;28;20523;-72
2021/10/10 10:09:40;;;;;;;14.65;13.15;;;22.30;61.10;;;;;;5072431;28;20028;-71
2021/10/10 10:12:07;;;;;;;13.35;11.95;;;22.30;60.90;;;;;;5072993;28;20040;-71
2021/10/10 10:14:34;;;;;;;15.32;12.52;;;22.10;60.50;;;;;;5072390;28;20107;-72
2021/10/10 10:17:03;;;;;;;14.40;12.90;;;21.80;61.60;;;;;;5072400;28;20032;-71
2021/10/10 10:19:30;;;;;;;16.05;14.13;;;21.50;61.50;;;;;;5070805;28;20020;-71
2021/10/10 10:21:57;;;;;;;16.73;13.73;;;21.40;61.90;;;;;;5058202;28;20036;-71
2021/10/10 10:24:27;;;;;;;17.70;14.32;;;21.50;63.00;;;;;;5072577;28;20492;-71
2021/10/10 10:26:53;;;;;;;17.27;14.23;;;21.60;62.90;;;;;;5072161;28;20409;-71
2021/10/10 10:29:29;;;;;;;18.63;15.07;;;21.70;61.90;;;;;;5072014;28;20529;-71
2021/10/10 10:31:58;;;;;;;15.77;13.85;;;21.70;62.40;;;;;;5072059;28;20032;-71
2021/10/10 10:34:33;;;;;;;18.25;14.93;;;21.60;61.40;;;;;;5071818;28;20134;-72
2021/10/10 10:36:58;;;;;;;18.52;14.32;;;21.50;62.30;;;;;;5072346;28;20048;-72
2021/10/10 10:39:44;;;;;;;19.45;14.57;;;21.40;62.10;;;;;;5072068;28;20040;-71
2021/10/10 10:42:33;;;;;;;16.52;13.73;;;21.50;62.70;;;;;;5057040;28;20032;-72
2021/10/10 10:45:00;;;;;;;16.85;13.80;;;21.70;62.60;;;;;;5056832;28;20049;-72
2021/10/10 10:47:39;;;;;;;17.15;14.43;;;21.90;62.40;;;;;;5069079;28;20021;-71
2021/10/10 10:50:11;;;;;;;17.90;14.25;;;22.20;63.50;;;;;;5071438;28;20036;-73
2021/10/10 10:52:39;;;;;;;15.80;13.68;;;22.50;60.80;;;;;;5071648;28;20043;-71
2021/10/10 10:55:05;;;;;;;16.42;13.85;;;22.60;60.40;;;;;;5071750;28;20123;-70
2021/10/10 10:57:33;;;;;;;14.95;12.73;;;22.70;59.90;;;;;;5071691;28;20056;-72
2021/10/10 11:00:01;;;;;;;16.13;14.05;;;22.60;59.20;;;;;;5072197;28;20028;-72
2021/10/10 11:02:57;;;;;;;18.77;14.07;;;22.50;59.20;;;;;;5071586;28;20073;-71
2021/10/10 11:05:45;;;;;;;16.25;13.65;;;22.40;60.60;;;;;;5062106;28;20115;-71
2021/10/10 11:08:16;;;;;;;17.63;13.88;;;22.60;60.50;;;;;;5067613;28;20063;-72
2021/10/10 11:11:03;;;;;;;17.75;13.93;;;22.70;59.10;;;;;;5071081;28;20040;-71
2021/10/10 11:13:36;;;;;;;16.67;14.27;;;23.00;61.00;;;;;;5071539;28;20078;-70
2021/10/10 11:16:21;;;;;;;;;;;23.30;59.60;;;;;;5071950;28;20033;-71
2021/10/10 11:18:52;;;;;;;14.70;12.75;;;23.60;60.70;;;;;;5055912;28;19908;-71
2021/10/10 11:21:24;;;;;;;16.73;13.77;;;23.70;56.90;;;;;;5071639;28;20029;-71
2021/10/10 11:23:57;;;;;;;16.20;13.40;;;23.80;56.20;;;;;;5070847;28;20554;-72
2021/10/10 11:26:24;;;;;;;17.30;13.07;;;23.80;56.50;;;;;;5071194;28;20028;-71
2021/10/10 11:28:59;;;;;;;16.50;13.10;;;23.60;54.90;;;;;;5070556;28;20143;-72
2021/10/10 11:31:31;;;;;;;16.13;13.73;;;23.60;55.60;;;;;;5071181;28;20153;-72
2021/10/10 11:33:57;;;;;;;17.25;13.93;;;23.70;55.30;;;;;;5071137;28;20036;-71
2021/10/10 11:36:47;;;;;;;16.13;12.68;;;23.60;54.20;;;;;;5071204;28;20107;-72
2021/10/10 11:39:24;;;;;;;16.50;13.93;;;23.70;56.60;;;;;;5066833;28;20043;-72
2021/10/10 11:41:58;;;;;;;15.98;13.52;;;23.80;55.10;;;;;;5070971;28;20033;-72
2021/10/10 11:44:25;;;;;;;15.52;13.70;;;23.90;54.60;;;;;;5061441;28;20021;-71
2021/10/10 11:47:00;;;;;;;14.18;12.40;;;23.90;53.80;;;;;;5064413;28;20030;-72
2021/10/10 11:55:03;;;;;;;14.50;12.95;;;24.60;55.10;;;;;;5049355;28;20032;-72
2021/10/10 11:57:30;;;;;;;18.02;14.93;;;24.70;51.90;;;;;;5070858;28;20135;-71
2021/10/10 12:00:03;;;;;;;18.17;14.63;;;24.30;50.90;;;;;;5060252;28;20025;-71
2021/10/10 12:02:46;;;;;;;17.98;14.15;;;23.60;52.30;;;;;;5073682;28;20036;-70
2021/10/10 12:05:13;;;;;;;18.13;14.82;;;23.20;55.00;;;;;;5074960;28;20032;-71
2021/10/10 12:07:41;;;;;;;19.02;14.60;;;23.50;54.90;;;;;;5074623;28;20070;-70
2021/10/10 12:10:09;;;;;;;17.70;13.27;;;23.50;55.60;;;;;;5074937;28;20103;-71
2021/10/10 12:12:35;;;;;;;15.20;12.75;;;23.90;55.10;;;;;;5074763;28;20036;-71
2021/10/10 12:15:01;;;;;;;16.70;13.77;;;24.40;54.20;;;;;;5075634;28;20028;-72
2021/10/10 12:17:43;;;;;;;15.70;12.90;;;25.00;52.70;;;;;;5074750;28;20427;-72
2021/10/10 12:20:17;;;;;;;15.80;13.02;;;25.40;51.90;;;;;;5074634;28;20036;-72
2021/10/10 12:22:54;;;;;;;14.10;11.65;;;26.50;53.50;;;;;;5070572;28;20047;-72
2021/10/10 12:25:23;;;;;;;14.85;12.98;;;27.80;50.30;;;;;;5074345;28;20032;-72
2021/10/10 12:28:16;;;;;;;14.30;12.20;;;28.30;42.70;;;;;;5074498;28;20029;-73
2021/10/10 12:31:02;;;;;;;14.00;12.50;;;27.70;45.50;;;;;;5056787;28;20058;-71
2021/10/10 12:33:51;;;;;;;14.27;12.32;;;28.10;47.70;;;;;;5072599;28;20045;-70
2021/10/10 12:36:17;;;;;;;13.30;11.90;;;30.00;47.00;;;;;;5071084;28;20396;-73
2021/10/10 12:38:50;;;;;;;12.68;11.38;;;31.60;41.90;;;;;;5062417;28;20048;-72
2021/10/10 12:41:19;;;;;;;14.43;11.30;;;32.80;39.30;;;;;;5071018;28;20424;-72
2021/10/10 12:43:47;;;;;;;13.57;11.80;;;33.50;36.40;;;;;;5074030;28;20516;-72
2021/10/10 12:46:13;;;;;;;12.80;11.38;;;32.90;31.80;;;;;;5074287;28;20047;-72
2021/10/10 12:48:39;;;;;;;12.95;10.88;;;30.30;31.90;;;;;;5073930;28;20021;-72